• pl
  • eng

Awiacja
TAF FT 19:30 17.08.2019
  • WIND
  • SIGNIFICANT EURO
  • SIGNIFICANT
  • SIGMET
  • AIRMET
  • TAF FC
  • TAF FT
  • METAR GG30
  • METAR GG00


TAF EPBY 171130Z 1712/1812 20010KT CAVOK=

TAF EPBY 171730Z 1718/1818 18008KT CAVOK=

TAF EPGD 171130Z 1712/1812 20010KT CAVOK=

TAF EPGD 171730Z 1718/1818 18007KT CAVOK
TEMPO 1810/1818 20015G25KT=

TAF EPKK 171430Z 1715/1815 25005KT CAVOK
PROB30 TEMPO 1715/1717 SCT040TCU=

TAF EPKK 171730Z 1718/1818 23005KT CAVOK=

TAF EPKT 171130Z 1712/1812 23005KT CAVOK=

TAF EPKT 171730Z 1718/1818 21005KT CAVOK=

TAF EPLL 171130Z 1712/1812 20005KT CAVOK
TEMPO 1712/1717 SCT045TCU=

TAF EPLL 171730Z 1718/1818 20005KT CAVOK=

TAF EPMO 171130Z 1712/1812 20005KT CAVOK
TEMPO 1712/1717 SCT045TCU=

TAF EPMO 171730Z 1718/1818 20005KT CAVOK=

TAF EPPO 171130Z 1712/1812 19010KT CAVOK
PROB40 1803/1808 BKN013=

TAF EPPO 171730Z 1718/1818 18008KT CAVOK
PROB40 1803/1808 BKN013
TEMPO 1810/1818 SHRA BKN030CB=

TAF EPRZ 171130Z 1712/1812 24005KT CAVOK
PROB30 TEMPO 1712/1716 SCT040TCU=

TAF EPRZ 171730Z 1718/1818 17004KT CAVOK=

TAF EPSC 171130Z 1712/1812 18010KT 9999 SCT040
PROB40 TEMPO 1806/1810 -RA BKN014=

TAF EPSC 171730Z 1718/1818 19006KT 9999 SCT035
PROB40 TEMPO 1806/1810 -RA BKN014
TEMPO 1810/1818 -SHRA BKN025CB=

TAF EPWA 171430Z 1715/1815 20005KT CAVOK
TEMPO 1715/1717 SCT045TCU=

TAF EPWA 171730Z 1718/1818 20005KT CAVOK=

TAF EPWR 171430Z 1715/1815 21009KT CAVOK
TEMPO 1809/1815 21015G25KT=

TAF EPWR 171730Z 1718/1818 20006KT CAVOK
PROB40 TEMPO 1809/1816 21015G25KT=
Awiacja.imgw.pl jest pogodowym serwisem informacyjnym
Instytutu Meteorologii i Gospodarki Wodnej Państwowego Instytutu Badawczego.
Copyright IMGW PIB 2009-2011© Wszelkie prawa zastrzeżone.